Airport View

Enter AWOS ICAO identifier for current METAR.

ex. KFNL

KPYM 191852Z AUTO 00000KT 10SM OVC019 21/17 A2987 RMK AO2 SLP114 T02110167

19 Jun 2019 19:05

Frequency: 135.625

Phone: 508-746-8003

Other Area AWOS: KGHG - KTAN - KEWB - KFMH

TAF KFMH 191739Z 1918/2018 08006KT P6SM BKN015 TEMPO 1919/1921 BKN008 FM192100 11006KT P6SM BKN008 FM200000 15006KT 4SM BR VCSH BKN008 FM200200 14006KT 4SM BR VCSH OVC003 FM200800 13003KT 3/4SM BR VCSH OVC003 FM201100 12004KT 1/2SM FG VCSH OVC003 FM201200 12004KT 1 1/2SM BR VCSH OVC003 FM201500 15005KT 3SM BR VCSH OVC005